createdAt,value
2023-04-06T00:01:09.751Z,2.30
2023-04-06T00:03:37.278Z,2.20
2023-04-06T00:06:04.933Z,2.90
2023-04-06T00:08:31.987Z,2.20
2023-04-06T00:10:59.198Z,2.10
2023-04-06T00:13:26.502Z,2.20
2023-04-06T00:15:53.798Z,2.10
2023-04-06T00:18:20.916Z,2.10
2023-04-06T00:20:48.196Z,0.80
2023-04-06T00:23:15.270Z,1.40
2023-04-06T00:25:42.514Z,1.90
2023-04-06T00:28:09.671Z,1.80
2023-04-06T00:30:36.785Z,1.90
2023-04-06T00:33:04.087Z,0.80
2023-04-06T00:35:31.732Z,1.80
2023-04-06T00:37:59.030Z,1.80
2023-04-06T00:40:26.282Z,0.40
2023-04-06T00:42:53.366Z,1.70
2023-04-06T00:45:20.661Z,1.70
2023-04-06T00:47:47.860Z,0.40
2023-04-06T00:50:14.946Z,1.70
2023-04-06T00:52:42.002Z,1.60
2023-04-06T00:55:11.507Z,2.90
2023-04-06T00:57:42.387Z,1.70
2023-04-06T01:00:11.226Z,1.70
2023-04-06T01:02:38.990Z,1.70
2023-04-06T01:05:06.802Z,1.60
2023-04-06T01:07:45.091Z,1.60
2023-04-06T01:10:27.487Z,1.60
2023-04-06T01:13:04.037Z,1.60
2023-04-06T01:16:04.378Z,1.50
2023-04-06T01:18:51.747Z,1.50
2023-04-06T01:21:27.524Z,1.50
2023-04-06T01:24:08.999Z,1.50
2023-04-06T01:26:57.668Z,1.40
2023-04-06T01:29:27.534Z,1.40
2023-04-06T01:31:54.868Z,1.40
2023-04-06T01:34:22.028Z,1.40
2023-04-06T01:36:49.101Z,1.30
2023-04-06T01:39:27.278Z,1.40
2023-04-06T01:41:54.396Z,1.30
2023-04-06T01:44:22.857Z,1.80
2023-04-06T01:46:58.103Z,1.10
2023-04-06T01:49:25.736Z,1.10
2023-04-06T01:51:56.137Z,1.20
2023-04-06T01:54:23.386Z,1.20
2023-04-06T01:57:03.075Z,1.10
2023-04-06T01:59:34.484Z,1.20
2023-04-06T02:02:07.448Z,1.10
2023-04-06T02:04:36.181Z,1.10
2023-04-06T02:07:12.645Z,1.10
2023-04-06T02:09:39.880Z,1.10
2023-04-06T02:12:11.722Z,1.10
2023-04-06T02:14:38.855Z,1.10
2023-04-06T02:17:06.251Z,1.10
2023-04-06T02:19:33.294Z,1.00
2023-04-06T02:22:00.291Z,1.00
2023-04-06T02:24:27.353Z,1.10
2023-04-06T02:26:54.335Z,1.00
2023-04-06T02:29:21.541Z,1.00
2023-04-06T02:31:48.936Z,0.90
2023-04-06T02:34:18.752Z,0.90
2023-04-06T02:36:49.972Z,0.90
2023-04-06T02:39:17.276Z,1.20
2023-04-06T02:41:44.372Z,0.90
2023-04-06T02:44:12.784Z,0.80
2023-04-06T02:46:43.325Z,0.80
2023-04-06T02:49:10.677Z,0.80
2023-04-06T02:51:38.064Z,0.70
2023-04-06T02:54:22.211Z,0.70
2023-04-06T02:56:49.288Z,1.10
2023-04-06T02:59:16.463Z,0.70
2023-04-06T03:01:50.573Z,0.70
2023-04-06T03:04:17.946Z,0.70
2023-04-06T03:06:45.073Z,0.70
2023-04-06T03:09:22.980Z,0.60
2023-04-06T03:11:50.008Z,0.60
2023-04-06T03:14:18.844Z,0.60
2023-04-06T03:16:45.945Z,0.50
2023-04-06T03:19:17.450Z,0.60
2023-04-06T03:21:44.823Z,0.60
2023-04-06T03:24:14.788Z,0.50
2023-04-06T03:26:43.268Z,0.50
2023-04-06T03:29:10.481Z,0.60
2023-04-06T03:31:38.085Z,0.50
2023-04-06T03:34:20.067Z,0.40
2023-04-06T03:36:49.881Z,0.40
2023-04-06T03:39:24.488Z,0.40
2023-04-06T03:41:52.564Z,0.40
2023-04-06T03:44:32.996Z,0.40
2023-04-06T03:47:00.661Z,0.50
2023-04-06T03:49:28.829Z,0.30
2023-04-06T03:51:57.885Z,0.30
2023-04-06T03:54:25.021Z,0.30
2023-04-06T03:56:51.999Z,0.30
2023-04-06T03:59:19.122Z,0.30
2023-04-06T04:01:46.236Z,0.30
2023-04-06T04:04:13.275Z,0.30
2023-04-06T04:06:40.462Z,0.30
2023-04-06T04:09:09.068Z,0.20
2023-04-06T04:11:36.392Z,0.30
2023-04-06T04:14:03.507Z,0.30
2023-04-06T04:16:30.894Z,0.60
2023-04-06T04:18:59.867Z,0.20
2023-04-06T04:21:27.007Z,0.20
2023-04-06T04:23:54.898Z,0.20
2023-04-06T04:26:22.149Z,0.90
2023-04-06T04:28:49.169Z,0.20
2023-04-06T04:31:18.411Z,0.20
2023-04-06T04:33:47.842Z,0.20
2023-04-06T04:36:22.415Z,0.20
2023-04-06T04:38:49.643Z,0.30
2023-04-06T04:41:16.698Z,0.20
2023-04-06T04:43:45.537Z,0.20
2023-04-06T04:46:14.747Z,0.30
2023-04-06T04:48:43.655Z,0.30
2023-04-06T04:51:11.021Z,0.30
2023-04-06T04:54:06.854Z,0.30
2023-04-06T04:56:34.043Z,0.40
2023-04-06T04:59:10.588Z,0.40
2023-04-06T05:01:51.737Z,0.40
2023-04-06T05:04:24.497Z,1.00
2023-04-06T05:07:06.077Z,0.60
2023-04-06T05:09:34.152Z,0.70
2023-04-06T05:12:01.660Z,0.70
2023-04-06T05:14:31.592Z,0.80
2023-04-06T05:17:00.598Z,0.80
2023-04-06T05:19:27.933Z,0.80
2023-04-06T05:21:55.003Z,1.00
2023-04-06T05:24:22.055Z,1.00
2023-04-06T05:26:50.300Z,1.00
2023-04-06T05:29:23.224Z,1.10
2023-04-06T05:31:51.730Z,1.20
2023-04-06T05:34:19.020Z,1.20
2023-04-06T05:36:46.677Z,1.30
2023-04-06T05:39:20.590Z,1.30
2023-04-06T05:41:52.369Z,1.30
2023-04-06T05:44:30.685Z,1.40
2023-04-06T05:47:10.652Z,1.40
2023-04-06T05:49:39.383Z,1.40
2023-04-06T05:52:11.785Z,1.50
2023-04-06T05:54:39.097Z,1.50
2023-04-06T05:57:06.238Z,1.60
2023-04-06T05:59:33.704Z,1.60
2023-04-06T06:02:02.368Z,1.50
2023-04-06T06:04:32.633Z,1.70
2023-04-06T06:07:00.166Z,1.70
2023-04-06T06:09:39.183Z,1.80
2023-04-06T06:12:17.842Z,1.80
2023-04-06T06:14:45.039Z,1.90
2023-04-06T06:17:12.114Z,2.00
2023-04-06T06:19:39.437Z,2.10
2023-04-06T06:22:08.528Z,2.20
2023-04-06T06:24:40.086Z,2.20
2023-04-06T06:27:08.787Z,2.30
2023-04-06T06:29:37.688Z,2.30
2023-04-06T06:32:05.160Z,2.40
2023-04-06T06:34:32.465Z,2.50
2023-04-06T06:37:03.175Z,2.60
2023-04-06T06:39:30.442Z,2.70
2023-04-06T06:41:57.685Z,2.80
2023-04-06T06:44:43.969Z,2.70
2023-04-06T06:47:11.566Z,2.80
2023-04-06T06:49:38.645Z,2.90
2023-04-06T06:52:05.828Z,2.90
2023-04-06T06:54:32.938Z,3.00
2023-04-06T06:57:01.335Z,3.10
2023-04-06T06:59:28.905Z,3.40
2023-04-06T07:01:56.508Z,3.30
2023-04-06T07:04:23.529Z,3.30
2023-04-06T07:06:51.685Z,3.60
2023-04-06T07:09:18.794Z,3.70
2023-04-06T07:11:46.241Z,3.60
2023-04-06T07:14:13.385Z,3.80
2023-04-06T07:16:40.613Z,3.90
2023-04-06T07:19:07.760Z,3.90
2023-04-06T07:21:35.155Z,3.90
2023-04-06T07:24:02.971Z,4.10
2023-04-06T07:26:29.950Z,4.20
2023-04-06T07:28:58.093Z,4.40
2023-04-06T07:31:26.215Z,4.50
2023-04-06T07:33:53.660Z,4.60
2023-04-06T07:36:21.799Z,4.50
2023-04-06T07:38:50.199Z,4.60
2023-04-06T07:41:18.249Z,4.80
2023-04-06T07:43:46.317Z,5.00
2023-04-06T07:46:13.544Z,5.10
2023-04-06T07:48:40.887Z,5.20
2023-04-06T07:51:09.977Z,5.30
2023-04-06T07:53:41.486Z,5.10
2023-04-06T07:56:08.632Z,5.20
2023-04-06T07:58:35.677Z,5.20
2023-04-06T08:01:03.017Z,5.20
2023-04-06T08:03:30.769Z,5.30
2023-04-06T08:05:57.961Z,5.30
2023-04-06T08:08:25.029Z,5.20
2023-04-06T08:10:53.532Z,5.40
2023-04-06T08:13:20.686Z,5.60
2023-04-06T08:15:48.169Z,5.50
2023-04-06T08:18:15.208Z,5.70
2023-04-06T08:20:42.438Z,5.60
2023-04-06T08:23:10.520Z,5.60
2023-04-06T08:25:37.908Z,5.60
2023-04-06T08:28:05.508Z,5.60
2023-04-06T08:30:32.805Z,5.70
2023-04-06T08:33:00.050Z,5.60
2023-04-06T08:35:28.332Z,5.90
2023-04-06T08:37:55.423Z,5.90
2023-04-06T08:40:22.590Z,5.90
2023-04-06T08:42:57.235Z,5.80
2023-04-06T08:45:24.463Z,5.90
2023-04-06T08:47:53.377Z,6.00
2023-04-06T08:50:20.630Z,6.10
2023-04-06T08:52:51.202Z,6.40
2023-04-06T08:55:19.516Z,6.20
2023-04-06T08:57:48.091Z,6.20
2023-04-06T09:00:17.022Z,6.20
2023-04-06T09:02:46.625Z,6.20
2023-04-06T09:05:14.129Z,6.30
2023-04-06T09:07:41.817Z,6.20
2023-04-06T09:10:09.423Z,6.30
2023-04-06T09:12:36.599Z,6.40
2023-04-06T09:15:04.105Z,6.10
2023-04-06T09:17:34.605Z,6.20
2023-04-06T09:20:03.881Z,6.30
2023-04-06T09:22:38.639Z,6.20
2023-04-06T09:25:06.535Z,6.30
2023-04-06T09:27:39.734Z,6.20
2023-04-06T09:30:14.941Z,6.50
2023-04-06T09:32:53.594Z,6.50
2023-04-06T09:35:22.395Z,6.60
2023-04-06T09:37:51.250Z,6.50
2023-04-06T09:40:20.005Z,6.50
2023-04-06T09:42:48.815Z,6.50
2023-04-06T09:45:16.382Z,6.40
2023-04-06T09:47:47.111Z,6.50
2023-04-06T09:50:17.446Z,6.60
2023-04-06T09:52:50.690Z,6.70
2023-04-06T09:55:28.455Z,6.90
2023-04-06T09:58:11.465Z,6.80
2023-04-06T10:00:45.724Z,7.00
2023-04-06T10:03:13.085Z,7.00
2023-04-06T10:05:48.199Z,7.20
2023-04-06T10:08:16.592Z,7.30
2023-04-06T10:10:44.617Z,7.20
2023-04-06T10:13:13.086Z,7.10
2023-04-06T10:15:43.323Z,7.20
2023-04-06T10:18:10.512Z,7.50
2023-04-06T10:21:09.742Z,7.60
2023-04-06T10:23:39.564Z,7.70
2023-04-06T10:26:06.902Z,7.70
2023-04-06T10:28:37.327Z,7.60
2023-04-06T10:31:07.652Z,7.50
2023-04-06T10:33:35.895Z,7.30
2023-04-06T10:36:22.708Z,7.40
2023-04-06T10:38:57.059Z,7.40
2023-04-06T10:41:24.331Z,7.40
2023-04-06T10:43:58.217Z,7.50
2023-04-06T10:46:33.335Z,7.80
2023-04-06T10:49:13.230Z,8.00
2023-04-06T10:51:40.635Z,8.30
2023-04-06T10:54:08.856Z,8.10
2023-04-06T10:56:39.946Z,8.10
2023-04-06T10:59:07.561Z,8.20
2023-04-06T11:01:35.348Z,8.10
2023-04-06T11:04:03.137Z,8.40
2023-04-06T11:06:32.621Z,7.90
2023-04-06T11:09:00.352Z,7.80
2023-04-06T11:11:28.307Z,7.70
2023-04-06T11:13:57.636Z,7.80
2023-04-06T11:16:34.460Z,7.80
2023-04-06T11:19:07.352Z,7.80
2023-04-06T11:21:41.211Z,8.00
2023-04-06T11:24:10.788Z,8.20
2023-04-06T11:26:41.599Z,8.20
2023-04-06T11:29:09.128Z,8.40
2023-04-06T11:31:46.945Z,8.50
2023-04-06T11:34:19.183Z,8.30
2023-04-06T11:36:47.872Z,8.10
2023-04-06T11:39:19.371Z,8.40
2023-04-06T11:41:59.185Z,8.50
2023-04-06T11:44:47.101Z,8.60
2023-04-06T11:47:14.348Z,8.80
2023-04-06T11:49:43.418Z,8.70
2023-04-06T11:52:21.743Z,8.60
2023-04-06T11:54:50.506Z,8.50
2023-04-06T11:57:19.795Z,8.40
2023-04-06T11:59:47.346Z,8.30
2023-04-06T12:02:14.609Z,8.20
2023-04-06T12:04:41.776Z,8.10
2023-04-06T12:07:08.997Z,8.10
2023-04-06T12:09:37.069Z,8.00
2023-04-06T12:12:04.802Z,8.00
2023-04-06T12:14:32.114Z,8.20
2023-04-06T12:16:59.577Z,8.30
2023-04-06T12:19:27.139Z,8.20
2023-04-06T12:21:55.673Z,7.30
2023-04-06T12:24:23.017Z,8.10
2023-04-06T12:26:54.069Z,8.20
2023-04-06T12:29:26.815Z,8.40
2023-04-06T12:31:54.325Z,8.60
2023-04-06T12:34:21.712Z,8.50
2023-04-06T12:36:48.922Z,8.60
2023-04-06T12:39:19.319Z,8.70
2023-04-06T12:41:47.688Z,8.70
2023-04-06T12:44:14.754Z,8.80
2023-04-06T12:46:42.026Z,8.70
2023-04-06T12:49:09.136Z,8.70
2023-04-06T12:51:36.236Z,8.60
2023-04-06T12:54:03.262Z,8.60
2023-04-06T12:56:32.147Z,8.50
2023-04-06T12:58:59.394Z,8.50
2023-04-06T13:01:29.187Z,8.50
2023-04-06T13:03:57.869Z,8.60
2023-04-06T13:06:28.663Z,8.60
2023-04-06T13:08:56.365Z,8.60
2023-04-06T13:11:26.291Z,8.60
2023-04-06T13:13:54.137Z,8.60
2023-04-06T13:16:21.730Z,8.70
2023-04-06T13:18:49.163Z,8.80
2023-04-06T13:21:17.356Z,8.80
2023-04-06T13:23:45.289Z,8.70
2023-04-06T13:26:14.842Z,8.60
2023-04-06T13:28:42.635Z,8.70
2023-04-06T13:31:10.835Z,8.80
2023-04-06T13:33:38.348Z,8.70
2023-04-06T13:36:07.491Z,8.70
2023-04-06T13:38:35.244Z,8.60
2023-04-06T13:41:02.349Z,8.60
2023-04-06T13:43:29.461Z,8.70
2023-04-06T13:45:59.290Z,8.70
2023-04-06T13:48:27.559Z,8.00
2023-04-06T13:50:55.107Z,9.00
2023-04-06T13:53:22.186Z,9.00
2023-04-06T13:55:56.686Z,9.10
2023-04-06T13:58:24.328Z,8.90
2023-04-06T14:00:52.217Z,9.00
2023-04-06T14:03:20.077Z,8.80
2023-04-06T14:05:47.446Z,8.70
2023-04-06T14:08:14.667Z,8.70
2023-04-06T14:10:43.362Z,8.70
2023-04-06T14:13:10.668Z,8.60
2023-04-06T14:15:38.473Z,8.60
2023-04-06T14:18:05.693Z,8.60
2023-04-06T14:20:33.750Z,8.70
2023-04-06T14:23:02.371Z,8.70
2023-04-06T14:25:29.684Z,8.60
2023-04-06T14:27:56.817Z,8.50
2023-04-06T14:30:23.965Z,8.60
2023-04-06T14:32:51.136Z,8.40
2023-04-06T14:35:18.269Z,8.50
2023-04-06T14:37:45.368Z,8.30
2023-04-06T14:40:12.777Z,8.20
2023-04-06T14:42:39.839Z,8.80
2023-04-06T14:45:07.430Z,8.20
2023-04-06T14:47:34.613Z,8.20
2023-04-06T14:50:01.790Z,8.00
2023-04-06T14:52:30.643Z,7.90
2023-04-06T14:54:59.609Z,7.80
2023-04-06T14:57:26.658Z,7.80
2023-04-06T14:59:56.762Z,7.90
2023-04-06T15:02:24.120Z,7.90
2023-04-06T15:04:53.262Z,7.90
2023-04-06T15:07:21.080Z,7.90
2023-04-06T15:09:48.120Z,7.90
2023-04-06T15:12:15.606Z,7.30
2023-04-06T15:14:42.756Z,8.00
2023-04-06T15:17:09.747Z,7.90
2023-04-06T15:19:37.345Z,7.90
2023-04-06T15:22:04.335Z,7.80
2023-04-06T15:24:31.415Z,7.80
2023-04-06T15:26:58.407Z,7.80
2023-04-06T15:29:26.526Z,7.90
2023-04-06T15:31:53.600Z,7.90
2023-04-06T15:34:21.090Z,7.70
2023-04-06T15:36:48.508Z,7.70
2023-04-06T15:39:15.730Z,7.10
2023-04-06T15:41:42.797Z,7.40
2023-04-06T15:44:09.892Z,7.20
2023-04-06T15:46:36.938Z,7.20
2023-04-06T15:49:05.464Z,7.10
2023-04-06T15:51:33.830Z,6.80
2023-04-06T15:54:01.055Z,6.80
2023-04-06T15:56:28.117Z,6.70
2023-04-06T15:58:55.383Z,6.60
2023-04-06T16:01:22.607Z,6.60
2023-04-06T16:03:49.786Z,6.60
2023-04-06T16:06:17.035Z,6.60
2023-04-06T16:08:44.301Z,6.60
2023-04-06T16:11:11.861Z,6.70
2023-04-06T16:13:38.985Z,6.70
2023-04-06T16:16:06.960Z,6.70
2023-04-06T16:18:36.201Z,6.60
2023-04-06T16:21:04.168Z,6.60
2023-04-06T16:23:31.787Z,6.60
2023-04-06T16:25:58.889Z,6.60
2023-04-06T16:28:25.921Z,6.60
2023-04-06T16:30:53.080Z,6.50
2023-04-06T16:33:20.680Z,6.50
2023-04-06T16:35:48.508Z,6.50
2023-04-06T16:38:16.756Z,6.40
2023-04-06T16:40:43.828Z,6.40
2023-04-06T16:43:10.937Z,6.30
2023-04-06T16:45:38.673Z,6.30
2023-04-06T16:48:06.823Z,6.30
2023-04-06T16:50:36.460Z,6.30
2023-04-06T16:53:04.004Z,6.30
2023-04-06T16:55:31.166Z,6.30
2023-04-06T16:57:58.240Z,6.20
2023-04-06T17:00:25.719Z,6.20
2023-04-06T17:02:53.172Z,6.30
2023-04-06T17:05:26.696Z,6.20
2023-04-06T17:07:54.445Z,6.10
2023-04-06T17:10:28.855Z,6.00
2023-04-06T17:13:04.419Z,6.00
2023-04-06T17:15:31.916Z,6.00
2023-04-06T17:17:59.026Z,5.90
2023-04-06T17:20:26.167Z,6.00
2023-04-06T17:22:53.475Z,6.00
2023-04-06T17:25:21.412Z,6.00
2023-04-06T17:27:48.648Z,5.90
2023-04-06T17:30:18.258Z,5.80
2023-04-06T17:32:46.454Z,5.70
2023-04-06T17:35:13.661Z,5.60
2023-04-06T17:37:44.519Z,5.40
2023-04-06T17:40:11.884Z,5.40
2023-04-06T17:42:38.891Z,5.40
2023-04-06T17:45:06.629Z,5.40
2023-04-06T17:47:33.723Z,5.30
2023-04-06T17:50:02.428Z,5.20
2023-04-06T17:52:29.893Z,5.20
2023-04-06T17:54:56.989Z,5.20
2023-04-06T17:57:24.328Z,5.10
2023-04-06T17:59:51.562Z,5.10
2023-04-06T18:02:20.164Z,5.00
2023-04-06T18:04:51.353Z,5.10
2023-04-06T18:07:18.367Z,5.10
2023-04-06T18:09:45.580Z,5.00
2023-04-06T18:12:12.584Z,4.90
2023-04-06T18:14:41.397Z,4.90
2023-04-06T18:17:08.551Z,4.90
2023-04-06T18:19:35.652Z,4.80
2023-04-06T18:22:02.850Z,4.80
2023-04-06T18:24:41.148Z,4.80
2023-04-06T18:27:10.012Z,4.70
2023-04-06T18:29:37.387Z,4.70
2023-04-06T18:32:05.714Z,4.70
2023-04-06T18:34:33.478Z,4.70
2023-04-06T18:37:01.762Z,4.60
2023-04-06T18:39:29.300Z,4.60
2023-04-06T18:41:56.712Z,4.00
2023-04-06T18:44:23.698Z,4.50
2023-04-06T18:46:52.597Z,4.40
2023-04-06T18:49:22.227Z,4.50
2023-04-06T18:51:49.313Z,4.50
2023-04-06T18:54:16.506Z,4.40
2023-04-06T18:56:43.596Z,4.30
2023-04-06T18:59:12.095Z,4.40
2023-04-06T19:01:43.871Z,4.40
2023-04-06T19:04:12.105Z,4.20
2023-04-06T19:06:39.425Z,4.20
2023-04-06T19:09:08.821Z,4.20
2023-04-06T19:11:37.004Z,4.30
2023-04-06T19:14:04.130Z,4.30
2023-04-06T19:16:31.495Z,4.20
2023-04-06T19:19:00.155Z,4.20
2023-04-06T19:21:28.268Z,4.30
2023-04-06T19:23:55.947Z,4.40
2023-04-06T19:26:24.213Z,4.40
2023-04-06T19:28:51.947Z,4.10
2023-04-06T19:31:19.771Z,4.20
2023-04-06T19:33:47.464Z,4.10
2023-04-06T19:36:14.819Z,4.10
2023-04-06T19:38:42.153Z,4.10
2023-04-06T19:41:09.831Z,4.00
2023-04-06T19:43:37.268Z,4.10
2023-04-06T19:46:04.851Z,4.10
2023-04-06T19:48:34.005Z,4.00
2023-04-06T19:51:01.692Z,4.10
2023-04-06T19:53:28.876Z,4.00
2023-04-06T19:55:56.065Z,4.00
2023-04-06T19:58:23.793Z,4.10
2023-04-06T20:00:51.156Z,4.00
2023-04-06T20:03:18.349Z,4.00
2023-04-06T20:05:46.787Z,4.00
2023-04-06T20:08:14.167Z,4.00
2023-04-06T20:10:41.287Z,4.00
2023-04-06T20:13:08.363Z,4.00
2023-04-06T20:15:35.577Z,3.90
2023-04-06T20:18:02.654Z,3.90
2023-04-06T20:20:29.842Z,4.00
2023-04-06T20:22:56.835Z,4.00
2023-04-06T20:25:23.860Z,4.00
2023-04-06T20:27:53.213Z,4.00
2023-04-06T20:30:20.357Z,4.00
2023-04-06T20:32:47.537Z,3.90
2023-04-06T20:35:14.621Z,3.90
2023-04-06T20:37:41.954Z,4.10
2023-04-06T20:40:09.383Z,4.00
2023-04-06T20:42:37.342Z,4.00
2023-04-06T20:45:04.778Z,4.00
2023-04-06T20:47:32.374Z,4.10
2023-04-06T20:50:00.105Z,4.20
2023-04-06T20:52:27.961Z,4.20
2023-04-06T20:54:55.105Z,4.30
2023-04-06T20:57:23.156Z,4.20
2023-04-06T20:59:50.412Z,4.20
2023-04-06T21:02:17.948Z,4.20
2023-04-06T21:04:45.561Z,4.10
2023-04-06T21:07:12.723Z,4.20
2023-04-06T21:09:41.009Z,4.10
2023-04-06T21:12:08.561Z,4.10
2023-04-06T21:14:36.684Z,4.20
2023-04-06T21:17:04.302Z,4.00
2023-04-06T21:19:31.513Z,4.20
2023-04-06T21:21:58.642Z,4.20
2023-04-06T21:24:44.563Z,4.20
2023-04-06T21:27:13.167Z,4.20
2023-04-06T21:29:40.443Z,4.20
2023-04-06T21:32:07.455Z,4.20
2023-04-06T21:34:34.627Z,4.20
2023-04-06T21:37:01.705Z,4.20
2023-04-06T21:39:28.842Z,4.30
2023-04-06T21:41:57.292Z,4.20
2023-04-06T21:44:24.443Z,4.20
2023-04-06T21:46:51.658Z,4.30
2023-04-06T21:49:18.825Z,4.30
2023-04-06T21:51:45.966Z,4.30
2023-04-06T21:54:13.062Z,4.30
2023-04-06T21:56:40.917Z,4.20
2023-04-06T21:59:08.018Z,4.20
2023-04-06T22:01:35.072Z,4.20
2023-04-06T22:04:02.458Z,4.20
2023-04-06T22:06:30.135Z,4.30
2023-04-06T22:08:58.258Z,4.20
2023-04-06T22:11:25.765Z,4.20
2023-04-06T22:13:53.003Z,4.30
2023-04-06T22:16:20.148Z,4.30
2023-04-06T22:18:47.231Z,4.30
2023-04-06T22:21:14.324Z,4.30
2023-04-06T22:23:42.665Z,4.30
2023-04-06T22:26:10.992Z,4.30
2023-04-06T22:28:38.400Z,4.30
2023-04-06T22:31:05.740Z,4.30
2023-04-06T22:33:32.782Z,4.30
2023-04-06T22:35:59.827Z,4.30
2023-04-06T22:38:26.976Z,4.30
2023-04-06T22:40:54.007Z,4.30
2023-04-06T22:43:21.139Z,4.30
2023-04-06T22:45:48.130Z,4.30
2023-04-06T22:48:15.266Z,4.30
2023-04-06T22:50:42.340Z,4.30
2023-04-06T22:53:09.350Z,4.30
2023-04-06T22:55:39.092Z,4.30
2023-04-06T22:58:06.540Z,4.30
2023-04-06T23:00:34.073Z,4.30
2023-04-06T23:03:01.621Z,4.30
2023-04-06T23:05:28.829Z,4.30
2023-04-06T23:07:56.110Z,4.30
2023-04-06T23:10:23.205Z,4.30
2023-04-06T23:12:50.980Z,4.30
2023-04-06T23:15:18.044Z,4.30
2023-04-06T23:17:45.170Z,4.30
2023-04-06T23:20:12.334Z,4.30
2023-04-06T23:22:39.399Z,4.20
2023-04-06T23:25:07.777Z,4.30
2023-04-06T23:27:34.816Z,4.30
2023-04-06T23:30:01.871Z,4.20
2023-04-06T23:32:29.063Z,4.20
2023-04-06T23:34:56.532Z,4.20
2023-04-06T23:37:23.565Z,4.20
2023-04-06T23:39:51.049Z,4.20
2023-04-06T23:42:18.049Z,4.20
2023-04-06T23:44:45.138Z,4.20
2023-04-06T23:47:12.266Z,4.20
2023-04-06T23:49:39.316Z,4.20
2023-04-06T23:52:06.431Z,4.20
2023-04-06T23:54:33.457Z,4.20
2023-04-06T23:57:01.423Z,4.20
2023-04-06T23:59:28.499Z,4.20
